Time;durP1;ratioP1;P1;durP2;ratioP2;P2;SDS_P1;SDS_P2;PMS_P1;PMS_P2;Temp;Humidity;BMP_temperature;BMP_pressure;BME280_temperature;BME280_humidity;BME280_pressure;Samples;Min_cycle;Max_cycle;Signal;HPM_P1;HPM_P2
2023/04/21 00:01:33;;;;;;;16.98;7.53;;;6.80;99.90;;;;;;4934158;29;20058;-78
2023/04/21 00:04:00;;;;;;;17.38;7.15;;;6.90;99.90;;;;;;4941865;29;20552;-78
2023/04/21 00:06:30;;;;;;;12.10;6.40;;;6.90;99.90;;;;;;4952063;29;20113;-78
2023/04/21 00:08:59;;;;;;;15.80;6.05;;;6.90;99.90;;;;;;4954399;29;20075;-80
2023/04/21 00:11:26;;;;;;;10.63;5.93;;;6.90;99.90;;;;;;4937487;29;20588;-79
2023/04/21 00:13:55;;;;;;;11.00;5.50;;;6.90;99.90;;;;;;4936248;29;20431;-80
2023/04/21 00:16:22;;;;;;;9.43;5.07;;;6.90;99.90;;;;;;4943044;29;20560;-79
2023/04/21 00:18:49;;;;;;;7.18;5.05;;;6.90;99.90;;;;;;4918870;29;20059;-79
2023/04/21 00:21:17;;;;;;;7.70;6.15;;;6.90;99.90;;;;;;4934787;29;20066;-79
2023/04/21 00:23:46;;;;;;;9.20;5.35;;;6.80;99.90;;;;;;4937001;29;20102;-79
2023/04/21 00:26:15;;;;;;;13.00;5.10;;;6.80;99.90;;;;;;4921504;29;20062;-79
2023/04/21 00:28:44;;;;;;;7.78;4.97;;;6.80;99.90;;;;;;4952582;29;20047;-79
2023/04/21 00:31:12;;;;;;;5.60;4.25;;;6.80;99.90;;;;;;4936349;29;20149;-79
2023/04/21 00:33:39;;;;;;;13.65;5.57;;;6.80;99.90;;;;;;4951628;29;20058;-79
2023/04/21 00:36:07;;;;;;;8.75;5.00;;;6.80;99.90;;;;;;4935556;29;20121;-79
2023/04/21 00:38:35;;;;;;;11.27;4.70;;;6.70;99.90;;;;;;4918678;29;20073;-78
2023/04/21 00:41:03;;;;;;;7.78;4.68;;;6.70;99.90;;;;;;4931076;29;20357;-79
2023/04/21 00:43:32;;;;;;;9.90;5.18;;;6.70;99.90;;;;;;4929329;29;20068;-78
2023/04/21 00:45:59;;;;;;;7.70;4.40;;;6.60;99.90;;;;;;4933806;29;20449;-77
2023/04/21 00:48:27;;;;;;;8.20;4.40;;;6.60;99.90;;;;;;4934059;29;20082;-79
2023/04/21 00:50:54;;;;;;;5.15;4.57;;;6.60;99.90;;;;;;4953983;29;20065;-78
2023/04/21 00:53:22;;;;;;;11.75;3.88;;;6.50;99.90;;;;;;4937967;29;20103;-78
2023/04/21 00:55:51;;;;;;;7.28;4.40;;;6.50;99.90;;;;;;4933836;29;20056;-78
2023/04/21 00:58:19;;;;;;;6.25;4.30;;;6.50;99.90;;;;;;4941612;29;20376;-78
2023/04/21 01:00:48;;;;;;;7.15;4.25;;;6.60;99.90;;;;;;4918632;29;20051;-79
2023/04/21 01:03:16;;;;;;;7.70;4.10;;;6.50;99.90;;;;;;4918463;29;20067;-79
2023/04/21 01:05:43;;;;;;;9.07;4.18;;;6.50;99.90;;;;;;4917964;29;20059;-79
2023/04/21 01:08:13;;;;;;;5.40;4.35;;;6.50;99.90;;;;;;4948404;29;20047;-78
2023/04/21 01:10:42;;;;;;;12.05;4.80;;;6.60;99.90;;;;;;4946054;29;20075;-79
2023/04/21 01:13:10;;;;;;;13.15;4.53;;;6.50;99.90;;;;;;4934677;29;20441;-79
2023/04/21 01:15:37;;;;;;;6.20;4.28;;;6.50;99.90;;;;;;4927025;29;20538;-78
2023/04/21 01:18:08;;;;;;;10.18;4.88;;;6.50;99.90;;;;;;4952543;29;20051;-78
2023/04/21 01:20:37;;;;;;;10.55;3.88;;;6.50;99.90;;;;;;4938711;29;20062;-79
2023/04/21 01:23:08;;;;;;;7.40;4.22;;;6.60;99.90;;;;;;4917389;29;20108;-79
2023/04/21 01:25:35;;;;;;;6.10;4.18;;;6.60;99.90;;;;;;4941747;29;20508;-79
2023/04/21 01:28:04;;;;;;;7.38;4.28;;;6.60;99.90;;;;;;4950130;28;20564;-79
2023/04/21 01:30:32;;;;;;;8.32;4.30;;;6.60;99.90;;;;;;4952374;29;20633;-79
2023/04/21 01:33:00;;;;;;;6.32;3.92;;;6.60;99.90;;;;;;4953651;29;20062;-79
2023/04/21 01:35:27;;;;;;;7.97;4.32;;;6.60;99.90;;;;;;4934435;29;20138;-79
2023/04/21 01:37:54;;;;;;;5.75;3.53;;;6.60;99.90;;;;;;4948057;29;20043;-79
2023/04/21 01:40:23;;;;;;;5.57;4.35;;;6.60;99.90;;;;;;4935733;29;20082;-79
2023/04/21 01:42:51;;;;;;;7.72;4.60;;;6.60;99.90;;;;;;4934842;29;20059;-78
2023/04/21 01:45:18;;;;;;;12.15;5.70;;;6.70;99.90;;;;;;4951240;29;20079;-78
2023/04/21 01:47:45;;;;;;;6.60;5.00;;;6.60;99.90;;;;;;4940188;29;20059;-78
2023/04/21 01:50:14;;;;;;;11.15;6.18;;;6.60;99.90;;;;;;4932580;29;20517;-77
2023/04/21 01:52:43;;;;;;;13.77;6.32;;;6.70;99.90;;;;;;4934312;29;20051;-78
2023/04/21 01:55:10;;;;;;;7.95;5.55;;;6.70;99.90;;;;;;4934438;28;20055;-78
2023/04/21 01:57:39;;;;;;;8.27;5.28;;;6.60;99.90;;;;;;4938143;29;20294;-78
2023/04/21 02:00:09;;;;;;;7.78;5.57;;;6.60;99.90;;;;;;4934719;29;20608;-78
2023/04/21 02:02:42;;;;;;;6.80;5.28;;;6.60;99.90;;;;;;4951995;29;20571;-78
2023/04/21 02:05:10;;;;;;;7.10;5.20;;;6.60;99.90;;;;;;4947079;29;20492;-78
2023/04/21 02:07:37;;;;;;;11.38;4.93;;;6.60;99.90;;;;;;4952996;29;20420;-78
2023/04/21 02:10:05;;;;;;;7.57;4.72;;;6.60;99.90;;;;;;4934681;29;20058;-78
2023/04/21 02:12:33;;;;;;;7.05;4.45;;;6.60;99.90;;;;;;4951388;29;20504;-78
2023/04/21 02:15:04;;;;;;;5.40;4.40;;;6.60;99.90;;;;;;4924373;29;20184;-79
2023/04/21 02:17:35;;;;;;;5.53;4.20;;;6.50;99.90;;;;;;4916860;29;20048;-77
2023/04/21 02:20:02;;;;;;;5.40;4.03;;;6.50;99.90;;;;;;4941723;29;20055;-77
2023/04/21 02:22:31;;;;;;;6.47;4.72;;;6.50;99.90;;;;;;4949380;28;20048;-78
2023/04/21 02:24:58;;;;;;;10.70;5.05;;;6.50;99.90;;;;;;4936592;29;20052;-78
2023/04/21 02:27:26;;;;;;;6.55;4.93;;;6.50;99.90;;;;;;4937102;29;20130;-78
2023/04/21 02:29:53;;;;;;;8.55;5.15;;;6.50;99.90;;;;;;4934184;29;20051;-78
2023/04/21 02:32:22;;;;;;;8.63;5.00;;;6.50;99.90;;;;;;4931522;29;20114;-78
2023/04/21 02:34:50;;;;;;;13.20;6.07;;;6.50;99.90;;;;;;4915959;29;20396;-78
2023/04/21 02:37:17;;;;;;;9.18;5.65;;;6.50;99.90;;;;;;4934579;29;20055;-78
2023/04/21 02:39:45;;;;;;;8.38;5.53;;;6.50;99.90;;;;;;4951455;29;20508;-78
2023/04/21 02:42:13;;;;;;;7.82;5.68;;;6.50;99.90;;;;;;4941253;29;20588;-78
2023/04/21 02:44:41;;;;;;;6.95;5.47;;;6.60;99.90;;;;;;4915377;29;20051;-78
2023/04/21 02:47:09;;;;;;;8.65;5.60;;;6.60;99.90;;;;;;4934151;29;20143;-78
2023/04/21 02:49:42;;;;;;;10.82;4.93;;;6.60;99.90;;;;;;4951190;29;20524;-78
2023/04/21 02:52:11;;;;;;;11.13;5.90;;;6.60;99.90;;;;;;4947221;29;20465;-79
2023/04/21 02:54:39;;;;;;;8.07;5.78;;;6.50;99.90;;;;;;4952422;29;20142;-79
2023/04/21 02:57:06;;;;;;;8.07;5.32;;;6.60;99.90;;;;;;4918550;29;20051;-79
2023/04/21 02:59:34;;;;;;;7.88;5.80;;;6.60;99.90;;;;;;4946399;29;20054;-78
2023/04/21 03:02:02;;;;;;;14.07;6.28;;;6.60;99.90;;;;;;4951739;29;20059;-79
2023/04/21 03:04:31;;;;;;;6.57;5.82;;;6.60;99.90;;;;;;4933642;29;20039;-80
2023/04/21 03:07:03;;;;;;;10.93;6.47;;;6.70;99.90;;;;;;4950221;29;20137;-78
2023/04/21 03:09:32;;;;;;;11.48;6.53;;;6.70;99.90;;;;;;4940668;29;20134;-78
2023/04/21 03:12:01;;;;;;;6.80;5.72;;;6.70;99.90;;;;;;4932338;29;20086;-80
2023/04/21 03:14:29;;;;;;;9.82;6.55;;;6.80;99.90;;;;;;4941557;29;20243;-79
2023/04/21 03:16:59;;;;;;;10.60;6.43;;;6.80;99.90;;;;;;4934125;29;20082;-79
2023/04/21 03:19:28;;;;;;;11.52;6.55;;;6.90;99.90;;;;;;4918638;29;20616;-79
2023/04/21 03:21:55;;;;;;;11.30;6.70;;;6.90;99.90;;;;;;4932908;29;20134;-81
2023/04/21 03:24:25;;;;;;;10.05;6.10;;;7.00;99.90;;;;;;4932941;29;20056;-79
2023/04/21 03:26:52;;;;;;;11.45;6.13;;;7.00;99.90;;;;;;4947988;29;20043;-79
2023/04/21 03:29:20;;;;;;;12.13;6.75;;;7.00;99.90;;;;;;4899798;29;20071;-80
2023/04/21 03:31:48;;;;;;;14.10;7.05;;;7.10;99.90;;;;;;4926886;29;20043;-79
2023/04/21 03:34:15;;;;;;;11.02;6.00;;;7.10;99.90;;;;;;4951860;28;20106;-79
2023/04/21 03:36:43;;;;;;;8.30;6.40;;;7.10;99.90;;;;;;4944990;29;20139;-78
2023/04/21 03:39:11;;;;;;;10.10;5.72;;;7.10;99.90;;;;;;4934840;29;20047;-81
2023/04/21 03:41:40;;;;;;;8.60;5.72;;;7.10;99.90;;;;;;4928170;29;20055;-81
2023/04/21 03:44:07;;;;;;;20.90;6.57;;;7.10;99.90;;;;;;4932431;29;20066;-81
2023/04/21 03:46:35;;;;;;;9.25;6.13;;;7.20;99.90;;;;;;4933374;29;20087;-82
2023/04/21 03:49:03;;;;;;;8.93;5.90;;;7.20;99.90;;;;;;4938298;29;20237;-81
2023/04/21 03:51:31;;;;;;;12.95;6.20;;;7.20;99.90;;;;;;4936701;29;20149;-81
2023/04/21 03:53:59;;;;;;;12.48;6.45;;;7.20;99.90;;;;;;4948738;28;20048;-81
2023/04/21 03:56:27;;;;;;;10.50;6.30;;;7.30;99.90;;;;;;4936095;29;20083;-81
2023/04/21 03:58:55;;;;;;;26.95;6.28;;;7.40;99.90;;;;;;4937369;29;20070;-82
2023/04/21 04:01:23;;;;;;;57.40;8.48;;;7.50;99.90;;;;;;4927123;29;20604;-82
2023/04/21 04:03:51;;;;;;;13.02;6.15;;;7.50;99.90;;;;;;4935369;29;20066;-82
2023/04/21 04:06:18;;;;;;;9.13;6.35;;;7.60;99.90;;;;;;4952077;29;20079;-82
2023/04/21 04:08:45;;;;;;;8.80;6.25;;;7.60;99.90;;;;;;4936964;29;20086;-81
2023/04/21 04:11:13;;;;;;;14.05;7.72;;;7.70;99.90;;;;;;4948719;29;20113;-81
2023/04/21 04:13:40;;;;;;;10.18;5.47;;;7.70;99.90;;;;;;4935442;28;20047;-81
2023/04/21 04:16:10;;;;;;;12.52;7.03;;;7.70;99.90;;;;;;4943551;29;20046;-82
2023/04/21 04:18:40;;;;;;;9.90;7.17;;;7.70;99.90;;;;;;4952099;28;20138;-82
2023/04/21 04:21:09;;;;;;;16.27;6.60;;;7.80;99.90;;;;;;4920255;29;20312;-83
2023/04/21 04:23:37;;;;;;;11.18;6.35;;;7.80;99.90;;;;;;4950732;29;20047;-84
2023/04/21 04:26:08;;;;;;;11.85;6.80;;;7.90;99.90;;;;;;4950001;29;20044;-83
2023/04/21 04:28:39;;;;;;;8.13;5.95;;;7.90;99.90;;;;;;4949411;29;20063;-84
2023/04/21 04:31:07;;;;;;;11.52;6.20;;;7.90;99.90;;;;;;4901618;29;20146;-84
2023/04/21 04:33:36;;;;;;;10.38;5.97;;;8.00;99.90;;;;;;4951078;28;20129;-83
2023/04/21 04:36:04;;;;;;;10.00;5.38;;;8.00;99.90;;;;;;4959686;28;20079;-84
2023/04/21 04:38:33;;;;;;;6.95;5.32;;;8.10;99.90;;;;;;4931265;29;20188;-85
2023/04/21 04:41:01;;;;;;;9.52;5.28;;;8.10;99.90;;;;;;4952901;29;20051;-85
2023/04/21 04:43:32;;;;;;;15.95;7.10;;;8.10;99.90;;;;;;4934996;29;20572;-83
2023/04/21 04:46:00;;;;;;;9.25;6.38;;;8.10;99.90;;;;;;4930943;29;20057;-82
2023/04/21 04:48:27;;;;;;;9.70;5.82;;;8.20;99.90;;;;;;4951610;29;20526;-82
2023/04/21 04:50:58;;;;;;;12.98;6.00;;;8.30;99.90;;;;;;4949795;29;20114;-83
2023/04/21 04:53:28;;;;;;;12.90;6.13;;;8.40;99.90;;;;;;4930013;29;20530;-84
2023/04/21 04:55:56;;;;;;;9.10;5.75;;;8.40;99.90;;;;;;4948727;28;20065;-83
2023/04/21 04:58:24;;;;;;;11.48;5.60;;;8.50;99.90;;;;;;4919848;29;20423;-86
2023/04/21 05:00:52;;;;;;;11.23;5.30;;;8.70;99.90;;;;;;4934276;29;20102;-83
2023/04/21 05:03:19;;;;;;;10.38;5.47;;;8.80;99.90;;;;;;4920848;29;20508;-84
2023/04/21 05:05:46;;;;;;;12.90;5.88;;;8.90;99.90;;;;;;4928473;29;20047;-82
2023/04/21 05:08:15;;;;;;;12.27;5.82;;;9.00;99.90;;;;;;4933897;29;20085;-81
2023/04/21 05:10:43;;;;;;;10.63;5.07;;;9.10;99.90;;;;;;4918568;29;20073;-81
2023/04/21 05:13:10;;;;;;;12.18;5.38;;;9.20;99.90;;;;;;4947305;28;20047;-84
2023/04/21 05:15:38;;;;;;;14.73;6.53;;;9.30;99.90;;;;;;4950753;28;20051;-83
2023/04/21 05:18:06;;;;;;;14.48;5.78;;;9.40;99.90;;;;;;4939197;29;20134;-88
2023/04/21 05:20:33;;;;;;;14.10;5.45;;;9.60;99.90;;;;;;4952051;29;20098;-84
2023/04/21 05:23:01;;;;;;;15.88;5.85;;;9.70;99.90;;;;;;4933017;29;20039;-85
2023/04/21 05:25:30;;;;;;;16.70;5.95;;;9.70;99.90;;;;;;4918314;29;20507;-84
2023/04/21 05:27:58;;;;;;;18.65;6.43;;;9.80;99.90;;;;;;4935870;29;20587;-84
2023/04/21 05:30:26;;;;;;;13.98;6.18;;;10.00;99.90;;;;;;4934762;29;20043;-84
2023/04/21 05:32:53;;;;;;;14.32;5.55;;;10.20;99.90;;;;;;4919042;29;20069;-83
2023/04/21 05:35:21;;;;;;;14.05;6.13;;;10.60;99.90;;;;;;4935832;29;20054;-84
2023/04/21 05:37:49;;;;;;;12.50;5.28;;;11.10;99.90;;;;;;4935390;29;20043;-83
2023/04/21 05:40:17;;;;;;;11.45;5.90;;;11.60;99.90;;;;;;4919348;29;20054;-84
2023/04/21 05:42:45;;;;;;;29.13;7.63;;;12.00;99.90;;;;;;4934607;29;20110;-82
2023/04/21 05:45:13;;;;;;;13.63;5.35;;;12.40;99.90;;;;;;4953091;29;20352;-85
2023/04/21 05:47:41;;;;;;;15.70;6.40;;;12.70;99.90;;;;;;4919716;29;20075;-84
2023/04/21 05:50:10;;;;;;;18.88;7.75;;;12.90;99.90;;;;;;4936133;29;20496;-83
2023/04/21 05:52:37;;;;;;;23.52;5.93;;;13.10;99.90;;;;;;4920220;29;20424;-83
2023/04/21 05:55:06;;;;;;;11.55;6.55;;;13.30;99.90;;;;;;4948258;28;20464;-81
2023/04/21 05:57:37;;;;;;;16.77;6.40;;;13.80;99.90;;;;;;4930711;28;20058;-79
2023/04/21 06:00:16;;;;;;;15.55;6.10;;;14.30;99.90;;;;;;4946151;29;20055;-81
2023/04/21 06:02:43;;;;;;;20.73;6.35;;;14.80;99.90;;;;;;4949293;29;20048;-80
2023/04/21 06:05:11;;;;;;;17.08;6.82;;;15.10;99.90;;;;;;4951152;29;20094;-79
2023/04/21 06:07:39;;;;;;;16.77;6.40;;;15.50;99.90;;;;;;4948708;28;20039;-80
2023/04/21 06:10:08;;;;;;;20.25;6.07;;;15.60;99.90;;;;;;4934091;29;20425;-82
2023/04/21 06:12:36;;;;;;;18.77;6.53;;;15.60;99.20;;;;;;4932755;29;20504;-80
2023/04/21 06:15:04;;;;;;;19.63;6.07;;;15.50;98.60;;;;;;4948092;28;20058;-81
2023/04/21 06:17:34;;;;;;;18.00;6.63;;;15.40;98.70;;;;;;4950918;28;20054;-81
2023/04/21 06:20:02;;;;;;;23.85;6.68;;;15.60;98.20;;;;;;4935055;29;20122;-84
2023/04/21 06:22:32;;;;;;;17.85;7.22;;;15.80;97.50;;;;;;4951254;29;20424;-81
2023/04/21 06:25:00;;;;;;;18.58;6.22;;;16.10;95.90;;;;;;4915309;29;20043;-82
2023/04/21 06:27:28;;;;;;;17.83;6.20;;;16.30;95.20;;;;;;4930662;29;20047;-83
2023/04/21 06:29:56;;;;;;;14.10;6.38;;;16.60;94.10;;;;;;4952331;28;20057;-83
2023/04/21 06:32:23;;;;;;;19.08;6.78;;;16.90;92.50;;;;;;4950385;29;20074;-84
2023/04/21 06:34:54;;;;;;;22.05;6.05;;;17.40;90.60;;;;;;4949692;29;20074;-83
2023/04/21 06:37:22;;;;;;;16.10;6.97;;;17.60;89.90;;;;;;4930383;29;20043;-84
2023/04/21 06:39:49;;;;;;;20.40;8.73;;;17.90;86.90;;;;;;4948334;29;20498;-84
2023/04/21 06:42:17;;;;;;;14.63;6.18;;;18.20;84.60;;;;;;4950115;29;20078;-85
2023/04/21 06:44:44;;;;;;;14.93;6.57;;;18.50;82.80;;;;;;4932223;28;20055;-84
2023/04/21 06:47:12;;;;;;;17.60;6.13;;;18.80;80.30;;;;;;4951426;28;20082;-87
2023/04/21 06:49:39;;;;;;;17.23;6.55;;;19.30;78.00;;;;;;4949253;28;20058;-83
2023/04/21 06:52:08;;;;;;;20.20;6.35;;;19.60;75.70;;;;;;4949323;29;20054;-83
2023/04/21 06:54:37;;;;;;;17.63;6.53;;;19.80;74.10;;;;;;4949472;29;20043;-84
2023/04/21 06:57:05;;;;;;;23.35;6.43;;;20.20;72.50;;;;;;4932595;29;20200;-84
2023/04/21 06:59:33;;;;;;;19.30;7.00;;;20.40;70.80;;;;;;4951224;29;20461;-83
2023/04/21 07:02:01;;;;;;;20.10;6.13;;;20.60;69.60;;;;;;4946385;29;20067;-85
2023/04/21 07:04:30;;;;;;;25.98;6.13;;;21.10;67.00;;;;;;4916449;29;20669;-85
2023/04/21 07:07:31;;;;;;;16.38;6.22;;;21.20;66.40;;;;;;4933985;29;20049;-86
2023/04/21 07:10:06;;;;;;;21.70;6.03;;;21.20;65.50;;;;;;4934138;29;20435;-87
2023/04/21 07:12:34;;;;;;;16.58;8.60;;;21.40;64.70;;;;;;4950792;29;20058;-83
2023/04/21 07:15:01;;;;;;;31.00;7.20;;;21.60;64.10;;;;;;4951680;28;20051;-83
2023/04/21 07:17:32;;;;;;;24.83;6.68;;;21.80;63.10;;;;;;4942515;28;20055;-84
2023/04/21 07:19:59;;;;;;;22.88;7.15;;;22.00;62.70;;;;;;4934397;28;20054;-85
2023/04/21 07:22:28;;;;;;;18.17;7.07;;;22.20;62.40;;;;;;4931583;28;20047;-86
2023/04/21 07:24:56;;;;;;;15.05;6.05;;;22.60;60.20;;;;;;4939923;28;20055;-85
2023/04/21 07:27:23;;;;;;;19.15;6.20;;;22.90;59.20;;;;;;4948662;28;20071;-85
2023/04/21 07:29:51;;;;;;;26.67;7.50;;;23.10;58.70;;;;;;4954682;29;20063;-85
2023/04/21 07:32:18;;;;;;;25.70;7.15;;;23.20;57.80;;;;;;4955147;28;20620;-85
2023/04/21 07:34:47;;;;;;;22.17;5.82;;;23.40;57.50;;;;;;4944783;29;20061;-85
2023/04/21 07:37:15;;;;;;;20.85;6.57;;;23.60;56.80;;;;;;4946153;28;20055;-84
2023/04/21 07:39:44;;;;;;;20.52;6.57;;;23.70;56.40;;;;;;4945638;28;20584;-85
2023/04/21 07:42:11;;;;;;;22.00;6.10;;;23.60;56.70;;;;;;4961985;28;20051;-84
2023/04/21 07:44:39;;;;;;;26.38;8.15;;;23.70;56.30;;;;;;4955064;28;20054;-85
2023/04/21 07:47:06;;;;;;;26.77;6.93;;;23.90;56.00;;;;;;4935611;28;20058;-85
2023/04/21 07:49:34;;;;;;;25.40;6.47;;;24.10;55.10;;;;;;4954893;28;20150;-86
2023/04/21 07:52:01;;;;;;;24.65;6.60;;;24.40;54.60;;;;;;4954096;28;20527;-86
2023/04/21 07:54:30;;;;;;;24.60;6.55;;;24.30;54.50;;;;;;4950410;28;20051;-84
2023/04/21 07:57:00;;;;;;;26.35;6.55;;;24.60;54.40;;;;;;4937167;28;20155;-83
2023/04/21 07:59:28;;;;;;;21.63;6.88;;;24.80;54.00;;;;;;4916077;29;20074;-82
2023/04/21 08:01:55;;;;;;;23.95;5.93;;;24.90;53.20;;;;;;4936706;29;20051;-84
2023/04/21 08:04:25;;;;;;;16.02;7.03;;;25.20;52.50;;;;;;4934837;29;20059;-84
2023/04/21 08:06:53;;;;;;;15.93;5.82;;;25.50;52.00;;;;;;4948650;28;20060;-84
2023/04/21 08:09:20;;;;;;;16.30;6.63;;;25.30;51.80;;;;;;4925983;28;20101;-86
2023/04/21 08:11:48;;;;;;;13.90;6.18;;;25.60;51.50;;;;;;4960566;28;20099;-84
2023/04/21 08:14:17;;;;;;;25.52;7.13;;;25.70;51.30;;;;;;4930709;29;20094;-83
2023/04/21 08:16:45;;;;;;;20.80;6.63;;;26.20;51.30;;;;;;4933525;29;20047;-84
2023/04/21 08:19:16;;;;;;;17.27;5.80;;;26.20;50.60;;;;;;4948390;28;20047;-85
2023/04/21 08:21:48;;;;;;;22.20;5.95;;;26.30;50.40;;;;;;4951406;28;20058;-85
2023/04/21 08:24:16;;;;;;;20.42;5.63;;;26.30;50.20;;;;;;4938804;28;20051;-84
2023/04/21 08:26:46;;;;;;;27.67;5.88;;;26.60;49.80;;;;;;4938668;28;20149;-85
2023/04/21 08:29:18;;;;;;;15.43;6.13;;;26.70;49.50;;;;;;4939352;28;20055;-84
2023/04/21 08:31:49;;;;;;;27.00;6.00;;;26.80;49.20;;;;;;4946577;29;20460;-86
2023/04/21 08:34:19;;;;;;;20.85;6.00;;;26.80;49.80;;;;;;4940066;28;20055;-86
2023/04/21 08:36:49;;;;;;;20.98;6.95;;;26.80;49.10;;;;;;4935440;29;20587;-86
2023/04/21 08:39:27;;;;;;;19.23;5.68;;;27.10;48.40;;;;;;4944502;28;20047;-86
2023/04/21 08:42:20;;;;;;;25.50;7.28;;;27.40;48.40;;;;;;4944651;28;20051;-86
2023/04/21 08:45:06;;;;;;;;;;;;;;;;;;;;;
2023/04/21 08:47:34;;;;;;;14.23;4.95;;;27.70;47.80;;;;;;4911970;28;20062;-85
2023/04/21 08:50:02;;;;;;;22.25;4.50;;;27.60;47.80;;;;;;4951135;28;20070;-84
2023/04/21 08:52:31;;;;;;;21.83;5.10;;;27.70;47.90;;;;;;4935435;29;20685;-84
2023/04/21 08:54:59;;;;;;;16.17;3.83;;;27.70;47.70;;;;;;4952803;29;20039;-84
2023/04/21 08:57:27;;;;;;;6.22;4.10;;;27.90;47.30;;;;;;4934663;29;20485;-84
2023/04/21 08:59:55;;;;;;;12.60;3.20;;;28.00;47.60;;;;;;4947703;28;20082;-85
2023/04/21 09:02:23;;;;;;;11.43;3.97;;;28.30;47.00;;;;;;4935389;29;20121;-86
2023/04/21 09:04:53;;;;;;;11.55;3.72;;;28.30;46.80;;;;;;4952830;29;20047;-85
2023/04/21 09:07:34;;;;;;;13.90;4.18;;;28.30;46.90;;;;;;4948354;28;20455;-85
2023/04/21 09:10:05;;;;;;;14.87;3.83;;;28.20;47.00;;;;;;4957609;28;20047;-86
2023/04/21 09:12:39;;;;;;;9.88;3.50;;;27.90;47.20;;;;;;4959801;28;20370;-88
2023/04/21 09:15:11;;;;;;;17.50;4.28;;;27.70;47.20;;;;;;4947695;28;20053;-86
2023/04/21 09:17:40;;;;;;;8.43;3.50;;;27.50;47.70;;;;;;4931307;29;20083;-84
2023/04/21 09:20:17;;;;;;;19.63;3.88;;;27.20;47.30;;;;;;4921302;29;20413;-85
2023/04/21 09:22:45;;;;;;;14.73;4.72;;;27.00;47.70;;;;;;4952311;29;20055;-84
2023/04/21 09:25:17;;;;;;;20.50;5.50;;;26.70;48.40;;;;;;4950670;29;20054;-86
2023/04/21 09:27:45;;;;;;;15.55;5.07;;;26.20;48.70;;;;;;4953925;29;20043;-85
2023/04/21 09:30:19;;;;;;;12.93;4.63;;;25.90;49.20;;;;;;4936837;29;20428;-84
2023/04/21 09:32:46;;;;;;;9.52;4.15;;;25.50;49.10;;;;;;4953390;28;20058;-86
2023/04/21 09:35:14;;;;;;;18.80;4.30;;;24.90;49.60;;;;;;4951181;29;20055;-84
2023/04/21 09:37:44;;;;;;;8.20;3.80;;;24.30;51.00;;;;;;4927740;29;20070;-83
2023/04/21 09:40:15;;;;;;;17.58;5.10;;;23.90;51.90;;;;;;4952179;28;20055;-84
2023/04/21 09:42:42;;;;;;;14.20;3.60;;;23.40;52.20;;;;;;4935193;29;20447;-83
2023/04/21 09:45:11;;;;;;;7.90;3.60;;;23.30;52.80;;;;;;4950104;29;20516;-85
2023/04/21 09:47:42;;;;;;;11.75;3.20;;;23.20;53.10;;;;;;4936813;29;20047;-85
2023/04/21 09:50:12;;;;;;;12.05;3.85;;;23.10;53.40;;;;;;4952228;29;20070;-82
2023/04/21 09:52:43;;;;;;;9.90;3.63;;;23.10;53.60;;;;;;4956322;28;20412;-84
2023/04/21 09:55:14;;;;;;;7.53;4.15;;;23.00;53.40;;;;;;4947666;28;20062;-83
2023/04/21 09:57:43;;;;;;;10.40;4.20;;;23.00;53.80;;;;;;4951171;28;20504;-84
2023/04/21 10:00:16;;;;;;;11.20;4.35;;;23.00;53.50;;;;;;4951735;29;20047;-85
2023/04/21 10:02:50;;;;;;;15.70;4.05;;;23.10;53.60;;;;;;4953546;28;20460;-86
2023/04/21 10:05:18;;;;;;;20.75;4.20;;;23.10;53.70;;;;;;4938540;28;20105;-83
2023/04/21 10:07:47;;;;;;;13.23;4.35;;;22.90;54.00;;;;;;4953516;28;20047;-84
2023/04/21 10:10:23;;;;;;;12.60;4.40;;;22.80;54.00;;;;;;4928846;28;20059;-84
2023/04/21 10:12:51;;;;;;;14.90;5.00;;;22.60;54.40;;;;;;4916950;29;20142;-85
2023/04/21 10:15:41;;;;;;;14.18;4.60;;;22.30;54.80;;;;;;4933780;29;20048;-84
2023/04/21 10:18:18;;;;;;;12.88;3.85;;;22.10;55.20;;;;;;4930038;29;20056;-84
2023/04/21 10:20:57;;;;;;;6.78;3.63;;;21.90;55.70;;;;;;4953204;29;20065;-84
2023/04/21 10:23:36;;;;;;;9.52;3.80;;;21.70;55.90;;;;;;4950609;28;20370;-85
2023/04/21 10:26:16;;;;;;;12.02;4.25;;;21.60;56.10;;;;;;4951399;28;20043;-82
2023/04/21 10:28:53;;;;;;;15.32;3.90;;;21.50;56.20;;;;;;4942190;29;20066;-84
2023/04/21 10:31:32;;;;;;;10.95;3.28;;;21.60;56.80;;;;;;4930124;29;20043;-84
2023/04/21 10:34:20;;;;;;;10.52;3.42;;;21.80;56.10;;;;;;4950835;28;20077;-85
2023/04/21 10:37:15;;;;;;;7.78;2.15;;;22.00;55.60;;;;;;4940527;29;20062;-84
2023/04/21 10:39:53;;;;;;;6.55;2.72;;;22.30;55.10;;;;;;4939906;28;20054;-83
2023/04/21 10:42:30;;;;;;;8.85;3.08;;;22.40;54.70;;;;;;4945736;29;20051;-84
2023/04/21 10:45:10;;;;;;;6.85;2.88;;;22.10;54.90;;;;;;4945159;29;20484;-84
2023/04/21 10:47:44;;;;;;;7.45;2.60;;;21.90;55.30;;;;;;4947702;29;20062;-85
2023/04/21 10:50:25;;;;;;;7.93;2.20;;;21.80;55.50;;;;;;4949072;29;20403;-82
2023/04/21 10:52:56;;;;;;;8.63;2.38;;;21.50;56.00;;;;;;4948016;29;20062;-86
2023/04/21 10:55:29;;;;;;;5.97;2.00;;;21.30;56.20;;;;;;4952109;29;20141;-86
2023/04/21 10:57:58;;;;;;;4.60;2.03;;;21.50;56.30;;;;;;4935451;29;20062;-88
2023/04/21 11:00:26;;;;;;;8.13;2.75;;;21.40;56.30;;;;;;4926195;28;20057;-84
2023/04/21 11:02:55;;;;;;;10.68;2.42;;;21.50;56.20;;;;;;4938692;29;20516;-85
2023/04/21 11:05:37;;;;;;;10.73;2.72;;;21.50;56.30;;;;;;4928147;29;20142;-87
2023/04/21 11:08:07;;;;;;;12.15;2.63;;;21.40;56.40;;;;;;4943069;29;20062;-86
2023/04/21 11:10:54;;;;;;;10.60;2.35;;;21.20;56.80;;;;;;4955736;28;20047;-84
2023/04/21 11:13:24;;;;;;;8.98;2.10;;;21.40;56.70;;;;;;4939456;28;20058;-84
2023/04/21 11:16:13;;;;;;;5.95;2.20;;;21.70;56.10;;;;;;4941923;28;20055;-84
2023/04/21 11:18:42;;;;;;;9.00;2.05;;;22.10;55.40;;;;;;4944924;29;20059;-84
2023/04/21 11:21:20;;;;;;;4.53;1.90;;;22.40;54.70;;;;;;4951453;29;20082;-84
2023/04/21 11:23:53;;;;;;;13.80;2.70;;;22.70;54.40;;;;;;4934253;29;20435;-83
2023/04/21 11:26:32;;;;;;;8.57;2.88;;;23.10;53.70;;;;;;4949371;29;20070;-83
2023/04/21 11:29:05;;;;;;;6.15;1.98;;;23.00;53.80;;;;;;4957186;28;20496;-83
2023/04/21 11:31:33;;;;;;;6.72;2.45;;;23.00;53.80;;;;;;4946740;29;20051;-84
2023/04/21 11:34:01;;;;;;;6.80;2.05;;;23.40;53.00;;;;;;4944202;28;20050;-88
2023/04/21 11:36:33;;;;;;;9.82;2.50;;;24.10;52.60;;;;;;4950557;29;20054;-90
2023/04/21 11:39:07;;;;;;;10.38;2.58;;;24.60;51.30;;;;;;4933113;29;20049;-90
2023/04/21 11:41:41;;;;;;;10.70;2.20;;;24.50;51.40;;;;;;4930856;29;20043;-93
2023/04/21 11:44:09;;;;;;;7.30;2.17;;;24.70;50.80;;;;;;4930438;29;20062;-88
2023/04/21 11:46:37;;;;;;;7.97;2.53;;;24.80;50.80;;;;;;4949017;29;20411;-86
2023/04/21 11:49:13;;;;;;;9.60;2.30;;;24.70;50.50;;;;;;4950108;28;20051;-85
2023/04/21 11:51:45;;;;;;;9.43;2.38;;;24.50;51.20;;;;;;4928019;29;20051;-87
2023/04/21 11:54:15;;;;;;;9.05;1.90;;;24.40;51.50;;;;;;4952166;28;20153;-85
2023/04/21 11:56:46;;;;;;;6.43;1.90;;;24.50;51.80;;;;;;4935387;28;20047;-84
2023/04/21 11:59:18;;;;;;;6.43;1.85;;;24.90;50.80;;;;;;4944585;29;20059;-86
2023/04/21 12:01:46;;;;;;;5.25;1.60;;;25.40;50.30;;;;;;4935350;29;20096;-85
2023/04/21 12:04:16;;;;;;;17.25;2.10;;;25.80;49.40;;;;;;4950400;29;20047;-85
2023/04/21 12:06:47;;;;;;;10.73;2.03;;;25.90;49.30;;;;;;4950353;29;20132;-86
2023/04/21 12:09:20;;;;;;;5.60;1.40;;;26.10;48.80;;;;;;4935046;29;20047;-86
2023/04/21 12:11:56;;;;;;;8.32;1.80;;;26.00;48.70;;;;;;4950224;28;20076;-86
2023/04/21 12:14:25;;;;;;;4.82;1.70;;;25.80;49.00;;;;;;4920313;29;20163;-85
2023/04/21 12:16:56;;;;;;;5.78;1.52;;;25.70;48.90;;;;;;4917395;29;20059;-85
2023/04/21 12:19:25;;;;;;;4.65;2.22;;;25.90;49.10;;;;;;4952697;29;20059;-85
2023/04/21 12:21:57;;;;;;;6.40;1.65;;;26.70;48.20;;;;;;4944840;29;20058;-86
2023/04/21 12:24:25;;;;;;;7.88;1.55;;;27.10;47.30;;;;;;4945877;28;20051;-85
2023/04/21 12:26:53;;;;;;;8.95;1.77;;;27.10;47.30;;;;;;4952138;29;20055;-86
2023/04/21 12:29:21;;;;;;;15.00;2.50;;;27.20;47.20;;;;;;4932345;29;20047;-83
2023/04/21 12:31:49;;;;;;;15.13;2.75;;;27.40;47.10;;;;;;4934127;29;20174;-82
2023/04/21 12:34:20;;;;;;;9.98;1.65;;;27.60;46.80;;;;;;4953109;28;20087;-83
2023/04/21 12:36:50;;;;;;;5.50;2.00;;;27.90;46.20;;;;;;4955470;28;20047;-86
2023/04/21 12:39:19;;;;;;;4.80;2.20;;;28.00;46.40;;;;;;4935366;29;20657;-85
2023/04/21 12:41:52;;;;;;;5.20;2.47;;;28.40;46.50;;;;;;4920552;29;20047;-85
2023/04/21 12:44:19;;;;;;;5.75;2.20;;;28.60;45.30;;;;;;4946382;29;20055;-85
2023/04/21 12:46:51;;;;;;;2.58;1.85;;;28.20;46.00;;;;;;4953245;29;20073;-85
2023/04/21 12:49:21;;;;;;;10.33;2.60;;;28.60;44.90;;;;;;4954239;29;20131;-86
2023/04/21 12:51:55;;;;;;;13.48;2.10;;;28.60;45.10;;;;;;4948663;29;20067;-86
2023/04/21 12:54:27;;;;;;;4.28;2.42;;;28.60;45.40;;;;;;4944174;28;20040;-86
2023/04/21 12:57:00;;;;;;;11.88;2.50;;;28.90;45.00;;;;;;4948025;29;20052;-87
2023/04/21 12:59:28;;;;;;;9.10;1.88;;;29.10;44.50;;;;;;4942945;29;20085;-87